99NC weather

Streets Ferry Heliport
New Bern, North Carolina, United States

Public forecast

Using degrees Fahrenheit for public forecast. Weather courtesy of forecast.io.

METAR (pilot weather report)

Closest report is Coastal Carolina Regional Airport, 9.3 nm (17.1 km) SSE. Retrieved 2019/04/26 08:54 UTC (24 minutes ago):

KEWN 260854Z AUTO 20005KT 10SM FEW024 19/16 A2982 RMK AO2 SLP097 T01890161 56019

TAF (pilot weather forecast)

Closest forecast is Coastal Carolina Regional Airport, 9.3 nm (17.1 km) SSE. Retrieved 2019/04/26 06:48 UTC (2 hours ago):

TAF KEWN 260545Z 2606/2706 20008KT P6SM BKN150 FM261300 19011G20KT P6SM VCSH SCT025 BKN045 FM261700 20016G29KT 6SM SHRA VCTS SCT025CB BKN050 FM270000 25012G21KT P6SM BKN045 FM270200 28013G20KT P6SM SCT250